sensor_id;sensor_type;location;lat;lon;timestamp;P1;durP1;ratioP1;P2;durP2;ratioP2
1378;SDS011;683;48.738;9.226;2023-05-14T00:00:13;8.70;;;7.90;;
1378;SDS011;683;48.738;9.226;2023-05-14T00:02:41;7.93;;;7.33;;
1378;SDS011;683;48.738;9.226;2023-05-14T00:05:08;8.13;;;7.43;;
1378;SDS011;683;48.738;9.226;2023-05-14T00:07:36;7.67;;;7.07;;
1378;SDS011;683;48.738;9.226;2023-05-14T00:10:05;7.80;;;7.20;;
1378;SDS011;683;48.738;9.226;2023-05-14T00:12:33;7.07;;;6.50;;
1378;SDS011;683;48.738;9.226;2023-05-14T00:15:00;7.03;;;6.27;;
1378;SDS011;683;48.738;9.226;2023-05-14T00:17:28;7.33;;;6.73;;
1378;SDS011;683;48.738;9.226;2023-05-14T00:19:55;6.60;;;6.10;;
1378;SDS011;683;48.738;9.226;2023-05-14T00:22:23;7.00;;;6.40;;
1378;SDS011;683;48.738;9.226;2023-05-14T00:24:51;7.30;;;6.70;;
1378;SDS011;683;48.738;9.226;2023-05-14T00:27:20;6.70;;;6.10;;
1378;SDS011;683;48.738;9.226;2023-05-14T00:29:47;8.40;;;7.70;;
1378;SDS011;683;48.738;9.226;2023-05-14T00:32:14;8.37;;;7.60;;
1378;SDS011;683;48.738;9.226;2023-05-14T00:34:41;8.50;;;7.80;;
1378;SDS011;683;48.738;9.226;2023-05-14T00:37:09;9.13;;;8.37;;
1378;SDS011;683;48.738;9.226;2023-05-14T00:39:36;8.03;;;7.40;;
1378;SDS011;683;48.738;9.226;2023-05-14T00:42:04;9.13;;;8.23;;
1378;SDS011;683;48.738;9.226;2023-05-14T00:44:33;8.43;;;7.73;;
1378;SDS011;683;48.738;9.226;2023-05-14T00:47:01;8.77;;;8.00;;
1378;SDS011;683;48.738;9.226;2023-05-14T00:49:28;8.50;;;7.70;;
1378;SDS011;683;48.738;9.226;2023-05-14T00:51:56;9.60;;;8.70;;
1378;SDS011;683;48.738;9.226;2023-05-14T00:54:25;10.90;;;9.97;;
1378;SDS011;683;48.738;9.226;2023-05-14T00:56:53;9.60;;;8.70;;
1378;SDS011;683;48.738;9.226;2023-05-14T00:59:21;10.80;;;9.90;;
1378;SDS011;683;48.738;9.226;2023-05-14T01:01:50;10.07;;;9.07;;
1378;SDS011;683;48.738;9.226;2023-05-14T01:04:17;9.97;;;9.10;;
1378;SDS011;683;48.738;9.226;2023-05-14T01:06:46;10.67;;;9.70;;
1378;SDS011;683;48.738;9.226;2023-05-14T01:09:24;11.77;;;10.67;;
1378;SDS011;683;48.738;9.226;2023-05-14T01:12:07;11.50;;;10.40;;
1378;SDS011;683;48.738;9.226;2023-05-14T01:14:41;13.23;;;11.93;;
1378;SDS011;683;48.738;9.226;2023-05-14T01:17:16;12.43;;;11.33;;
1378;SDS011;683;48.738;9.226;2023-05-14T01:19:46;11.23;;;10.23;;
1378;SDS011;683;48.738;9.226;2023-05-14T01:22:15;11.40;;;10.33;;
1378;SDS011;683;48.738;9.226;2023-05-14T01:24:42;12.87;;;11.67;;
1378;SDS011;683;48.738;9.226;2023-05-14T01:27:24;13.10;;;11.80;;
1378;SDS011;683;48.738;9.226;2023-05-14T01:29:58;14.07;;;12.70;;
1378;SDS011;683;48.738;9.226;2023-05-14T01:32:32;13.90;;;12.70;;
1378;SDS011;683;48.738;9.226;2023-05-14T01:35:00;12.90;;;11.70;;
1378;SDS011;683;48.738;9.226;2023-05-14T01:37:29;12.50;;;11.40;;
1378;SDS011;683;48.738;9.226;2023-05-14T01:39:58;12.40;;;11.30;;
1378;SDS011;683;48.738;9.226;2023-05-14T01:42:26;13.13;;;11.97;;
1378;SDS011;683;48.738;9.226;2023-05-14T01:44:55;12.50;;;11.40;;
1378;SDS011;683;48.738;9.226;2023-05-14T01:47:23;13.83;;;12.53;;
1378;SDS011;683;48.738;9.226;2023-05-14T01:49:50;12.57;;;11.47;;
1378;SDS011;683;48.738;9.226;2023-05-14T01:52:17;12.73;;;11.63;;
1378;SDS011;683;48.738;9.226;2023-05-14T01:54:47;13.73;;;12.50;;
1378;SDS011;683;48.738;9.226;2023-05-14T01:57:14;13.30;;;12.10;;
1378;SDS011;683;48.738;9.226;2023-05-14T01:59:42;13.70;;;12.40;;
1378;SDS011;683;48.738;9.226;2023-05-14T02:02:09;13.30;;;12.00;;
1378;SDS011;683;48.738;9.226;2023-05-14T02:04:36;14.97;;;13.50;;
1378;SDS011;683;48.738;9.226;2023-05-14T02:07:04;17.00;;;15.40;;
1378;SDS011;683;48.738;9.226;2023-05-14T02:09:31;15.30;;;13.77;;
1378;SDS011;683;48.738;9.226;2023-05-14T02:12:00;15.33;;;13.93;;
1378;SDS011;683;48.738;9.226;2023-05-14T02:14:27;15.17;;;13.57;;
1378;SDS011;683;48.738;9.226;2023-05-14T02:16:55;14.30;;;12.90;;
1378;SDS011;683;48.738;9.226;2023-05-14T02:19:22;15.30;;;13.80;;
1378;SDS011;683;48.738;9.226;2023-05-14T02:21:50;17.00;;;15.40;;
1378;SDS011;683;48.738;9.226;2023-05-14T02:24:17;15.97;;;14.33;;
1378;SDS011;683;48.738;9.226;2023-05-14T02:26:45;14.13;;;12.73;;
1378;SDS011;683;48.738;9.226;2023-05-14T02:29:13;15.23;;;13.80;;
1378;SDS011;683;48.738;9.226;2023-05-14T02:31:41;15.90;;;14.43;;
1378;SDS011;683;48.738;9.226;2023-05-14T02:34:08;17.40;;;15.80;;
1378;SDS011;683;48.738;9.226;2023-05-14T02:36:35;16.30;;;14.60;;
1378;SDS011;683;48.738;9.226;2023-05-14T02:39:03;18.13;;;16.33;;
1378;SDS011;683;48.738;9.226;2023-05-14T02:41:31;17.50;;;15.90;;
1378;SDS011;683;48.738;9.226;2023-05-14T02:43:58;16.50;;;14.90;;
1378;SDS011;683;48.738;9.226;2023-05-14T02:46:27;16.27;;;14.67;;
1378;SDS011;683;48.738;9.226;2023-05-14T02:48:54;16.07;;;14.57;;
1378;SDS011;683;48.738;9.226;2023-05-14T02:51:21;16.67;;;14.10;;
1378;SDS011;683;48.738;9.226;2023-05-14T02:53:49;16.27;;;14.67;;
1378;SDS011;683;48.738;9.226;2023-05-14T02:56:16;16.13;;;14.63;;
1378;SDS011;683;48.738;9.226;2023-05-14T02:58:44;16.20;;;14.70;;
1378;SDS011;683;48.738;9.226;2023-05-14T03:01:11;19.43;;;14.57;;
1378;SDS011;683;48.738;9.226;2023-05-14T03:03:40;15.43;;;14.07;;
1378;SDS011;683;48.738;9.226;2023-05-14T03:06:07;16.43;;;14.97;;
1378;SDS011;683;48.738;9.226;2023-05-14T03:08:35;14.60;;;13.20;;
1378;SDS011;683;48.738;9.226;2023-05-14T03:11:02;14.97;;;13.37;;
1378;SDS011;683;48.738;9.226;2023-05-14T03:13:31;14.93;;;13.43;;
1378;SDS011;683;48.738;9.226;2023-05-14T03:15:58;14.57;;;13.27;;
1378;SDS011;683;48.738;9.226;2023-05-14T03:18:25;15.60;;;14.00;;
1378;SDS011;683;48.738;9.226;2023-05-14T03:20:56;15.33;;;13.80;;
1378;SDS011;683;48.738;9.226;2023-05-14T03:23:23;16.23;;;14.73;;
1378;SDS011;683;48.738;9.226;2023-05-14T03:25:51;20.93;;;19.23;;
1378;SDS011;683;48.738;9.226;2023-05-14T03:28:18;16.90;;;15.30;;
1378;SDS011;683;48.738;9.226;2023-05-14T03:30:45;15.60;;;14.07;;
1378;SDS011;683;48.738;9.226;2023-05-14T03:33:13;13.90;;;12.60;;
1378;SDS011;683;48.738;9.226;2023-05-14T03:35:40;12.60;;;11.40;;
1378;SDS011;683;48.738;9.226;2023-05-14T03:38:09;14.87;;;13.33;;
1378;SDS011;683;48.738;9.226;2023-05-14T03:40:36;13.47;;;12.37;;
1378;SDS011;683;48.738;9.226;2023-05-14T03:43:04;16.03;;;14.53;;
1378;SDS011;683;48.738;9.226;2023-05-14T03:45:31;15.00;;;13.70;;
1378;SDS011;683;48.738;9.226;2023-05-14T03:47:59;14.50;;;13.10;;
1378;SDS011;683;48.738;9.226;2023-05-14T03:50:28;14.90;;;12.87;;
1378;SDS011;683;48.738;9.226;2023-05-14T03:52:55;13.90;;;12.70;;
1378;SDS011;683;48.738;9.226;2023-05-14T03:55:24;13.97;;;12.67;;
1378;SDS011;683;48.738;9.226;2023-05-14T03:57:51;13.87;;;12.67;;
1378;SDS011;683;48.738;9.226;2023-05-14T04:00:19;13.40;;;12.10;;
1378;SDS011;683;48.738;9.226;2023-05-14T04:02:46;13.57;;;12.37;;
1378;SDS011;683;48.738;9.226;2023-05-14T04:05:14;13.43;;;12.17;;
1378;SDS011;683;48.738;9.226;2023-05-14T04:07:41;12.57;;;11.47;;
1378;SDS011;683;48.738;9.226;2023-05-14T04:10:10;13.90;;;12.60;;
1378;SDS011;683;48.738;9.226;2023-05-14T04:12:39;11.87;;;10.77;;
1378;SDS011;683;48.738;9.226;2023-05-14T04:15:07;11.80;;;10.77;;
1378;SDS011;683;48.738;9.226;2023-05-14T04:17:35;12.90;;;11.70;;
1378;SDS011;683;48.738;9.226;2023-05-14T04:20:03;14.23;;;12.83;;
1378;SDS011;683;48.738;9.226;2023-05-14T04:22:32;13.60;;;12.40;;
1378;SDS011;683;48.738;9.226;2023-05-14T04:24:59;13.90;;;12.60;;
1378;SDS011;683;48.738;9.226;2023-05-14T04:27:27;11.70;;;10.70;;
1378;SDS011;683;48.738;9.226;2023-05-14T04:29:56;12.17;;;11.07;;
1378;SDS011;683;48.738;9.226;2023-05-14T04:32:23;13.13;;;11.93;;
1378;SDS011;683;48.738;9.226;2023-05-14T04:34:51;12.60;;;11.47;;
1378;SDS011;683;48.738;9.226;2023-05-14T04:37:18;14.20;;;12.77;;
1378;SDS011;683;48.738;9.226;2023-05-14T04:39:45;14.87;;;13.43;;
1378;SDS011;683;48.738;9.226;2023-05-14T04:42:13;13.63;;;12.33;;
1378;SDS011;683;48.738;9.226;2023-05-14T04:44:40;13.30;;;12.10;;
1378;SDS011;683;48.738;9.226;2023-05-14T04:47:09;13.40;;;12.10;;
1378;SDS011;683;48.738;9.226;2023-05-14T04:49:36;12.57;;;11.57;;
1378;SDS011;683;48.738;9.226;2023-05-14T04:52:04;14.27;;;12.97;;
1378;SDS011;683;48.738;9.226;2023-05-14T04:54:32;12.57;;;11.47;;
1378;SDS011;683;48.738;9.226;2023-05-14T04:56:59;12.37;;;11.30;;
1378;SDS011;683;48.738;9.226;2023-05-14T04:59:27;13.03;;;11.77;;
1378;SDS011;683;48.738;9.226;2023-05-14T05:01:55;13.00;;;11.73;;
1378;SDS011;683;48.738;9.226;2023-05-14T05:04:24;14.43;;;12.97;;
1378;SDS011;683;48.738;9.226;2023-05-14T05:06:51;13.30;;;12.00;;
1378;SDS011;683;48.738;9.226;2023-05-14T05:09:19;14.13;;;12.67;;
1378;SDS011;683;48.738;9.226;2023-05-14T05:11:46;12.67;;;11.50;;
1378;SDS011;683;48.738;9.226;2023-05-14T05:14:13;13.57;;;12.27;;
1378;SDS011;683;48.738;9.226;2023-05-14T05:16:41;13.43;;;12.10;;
1378;SDS011;683;48.738;9.226;2023-05-14T05:19:09;12.40;;;11.30;;
1378;SDS011;683;48.738;9.226;2023-05-14T05:21:38;12.87;;;11.67;;
1378;SDS011;683;48.738;9.226;2023-05-14T05:24:05;14.00;;;12.70;;
1378;SDS011;683;48.738;9.226;2023-05-14T05:26:33;13.23;;;12.00;;
1378;SDS011;683;48.738;9.226;2023-05-14T05:29:01;13.30;;;12.20;;
1378;SDS011;683;48.738;9.226;2023-05-14T05:31:29;12.73;;;11.53;;
1378;SDS011;683;48.738;9.226;2023-05-14T05:33:57;13.60;;;12.30;;
1378;SDS011;683;48.738;9.226;2023-05-14T05:36:25;13.17;;;11.97;;
1378;SDS011;683;48.738;9.226;2023-05-14T05:38:54;10.50;;;9.70;;
1378;SDS011;683;48.738;9.226;2023-05-14T05:41:21;13.80;;;12.40;;
1378;SDS011;683;48.738;9.226;2023-05-14T05:43:49;13.47;;;12.10;;
1378;SDS011;683;48.738;9.226;2023-05-14T05:46:16;13.13;;;11.73;;
1378;SDS011;683;48.738;9.226;2023-05-14T05:48:44;12.20;;;11.20;;
1378;SDS011;683;48.738;9.226;2023-05-14T05:51:11;13.07;;;11.87;;
1378;SDS011;683;48.738;9.226;2023-05-14T05:53:39;13.60;;;12.27;;
1378;SDS011;683;48.738;9.226;2023-05-14T05:56:08;12.43;;;10.97;;
1378;SDS011;683;48.738;9.226;2023-05-14T05:58:35;11.30;;;10.10;;
1378;SDS011;683;48.738;9.226;2023-05-14T06:01:02;13.33;;;12.10;;
1378;SDS011;683;48.738;9.226;2023-05-14T06:03:30;12.10;;;11.00;;
1378;SDS011;683;48.738;9.226;2023-05-14T06:05:58;11.57;;;10.57;;
1378;SDS011;683;48.738;9.226;2023-05-14T06:08:25;11.50;;;10.50;;
1378;SDS011;683;48.738;9.226;2023-05-14T06:10:52;13.00;;;11.80;;
1378;SDS011;683;48.738;9.226;2023-05-14T06:13:21;11.80;;;10.60;;
1378;SDS011;683;48.738;9.226;2023-05-14T06:15:49;13.77;;;12.37;;
1378;SDS011;683;48.738;9.226;2023-05-14T06:18:16;11.37;;;10.27;;
1378;SDS011;683;48.738;9.226;2023-05-14T06:20:44;12.67;;;11.30;;
1378;SDS011;683;48.738;9.226;2023-05-14T06:23:11;12.40;;;11.20;;
1378;SDS011;683;48.738;9.226;2023-05-14T06:25:38;12.00;;;10.90;;
1378;SDS011;683;48.738;9.226;2023-05-14T06:28:06;12.37;;;11.17;;
1378;SDS011;683;48.738;9.226;2023-05-14T06:30:34;11.40;;;10.23;;
1378;SDS011;683;48.738;9.226;2023-05-14T06:33:02;12.53;;;11.33;;
1378;SDS011;683;48.738;9.226;2023-05-14T06:35:29;11.03;;;10.03;;
1378;SDS011;683;48.738;9.226;2023-05-14T06:37:57;11.30;;;10.27;;
1378;SDS011;683;48.738;9.226;2023-05-14T06:40:24;13.30;;;11.37;;
1378;SDS011;683;48.738;9.226;2023-05-14T06:42:51;12.60;;;11.40;;
1378;SDS011;683;48.738;9.226;2023-05-14T06:45:19;12.67;;;11.10;;
1378;SDS011;683;48.738;9.226;2023-05-14T06:47:48;11.20;;;10.20;;
1378;SDS011;683;48.738;9.226;2023-05-14T06:50:15;9.80;;;9.00;;
1378;SDS011;683;48.738;9.226;2023-05-14T06:52:43;12.77;;;11.57;;
1378;SDS011;683;48.738;9.226;2023-05-14T06:55:11;9.87;;;8.97;;
1378;SDS011;683;48.738;9.226;2023-05-14T06:57:38;10.70;;;9.60;;
1378;SDS011;683;48.738;9.226;2023-05-14T07:00:06;10.07;;;9.10;;
1378;SDS011;683;48.738;9.226;2023-05-14T07:02:34;10.23;;;9.23;;
1378;SDS011;683;48.738;9.226;2023-05-14T07:05:03;10.27;;;9.33;;
1378;SDS011;683;48.738;9.226;2023-05-14T07:07:33;9.67;;;8.77;;
1378;SDS011;683;48.738;9.226;2023-05-14T07:10:00;10.90;;;9.90;;
1378;SDS011;683;48.738;9.226;2023-05-14T07:12:27;10.70;;;9.80;;
1378;SDS011;683;48.738;9.226;2023-05-14T07:14:55;9.83;;;9.03;;
1378;SDS011;683;48.738;9.226;2023-05-14T07:17:23;9.53;;;8.73;;
1378;SDS011;683;48.738;9.226;2023-05-14T07:19:50;10.77;;;8.83;;
1378;SDS011;683;48.738;9.226;2023-05-14T07:22:21;9.50;;;8.60;;
1378;SDS011;683;48.738;9.226;2023-05-14T07:24:48;8.93;;;8.23;;
1378;SDS011;683;48.738;9.226;2023-05-14T07:27:16;9.33;;;8.63;;
1378;SDS011;683;48.738;9.226;2023-05-14T07:29:43;9.37;;;8.47;;
1378;SDS011;683;48.738;9.226;2023-05-14T07:32:11;9.10;;;8.30;;
1378;SDS011;683;48.738;9.226;2023-05-14T07:34:38;9.13;;;8.43;;
1378;SDS011;683;48.738;9.226;2023-05-14T07:37:05;9.83;;;9.00;;
1378;SDS011;683;48.738;9.226;2023-05-14T07:39:34;10.23;;;9.37;;
1378;SDS011;683;48.738;9.226;2023-05-14T07:42:02;10.50;;;9.60;;
1378;SDS011;683;48.738;9.226;2023-05-14T07:44:30;10.30;;;9.20;;
1378;SDS011;683;48.738;9.226;2023-05-14T07:46:58;8.87;;;8.17;;
1378;SDS011;683;48.738;9.226;2023-05-14T07:49:25;10.03;;;9.13;;
1378;SDS011;683;48.738;9.226;2023-05-14T07:51:52;9.60;;;8.70;;
1378;SDS011;683;48.738;9.226;2023-05-14T07:54:20;8.17;;;7.40;;
1378;SDS011;683;48.738;9.226;2023-05-14T07:56:48;9.23;;;8.53;;
1378;SDS011;683;48.738;9.226;2023-05-14T07:59:16;9.10;;;8.30;;
1378;SDS011;683;48.738;9.226;2023-05-14T08:01:43;10.20;;;9.33;;
1378;SDS011;683;48.738;9.226;2023-05-14T08:04:11;8.30;;;7.50;;
1378;SDS011;683;48.738;9.226;2023-05-14T08:06:40;10.27;;;8.70;;
1378;SDS011;683;48.738;9.226;2023-05-14T08:09:07;10.03;;;8.80;;
1378;SDS011;683;48.738;9.226;2023-05-14T08:11:35;9.17;;;8.37;;
1378;SDS011;683;48.738;9.226;2023-05-14T08:14:04;10.07;;;9.17;;
1378;SDS011;683;48.738;9.226;2023-05-14T08:16:32;10.53;;;9.63;;
1378;SDS011;683;48.738;9.226;2023-05-14T08:18:59;8.13;;;7.50;;
1378;SDS011;683;48.738;9.226;2023-05-14T08:21:27;10.00;;;9.10;;
1378;SDS011;683;48.738;9.226;2023-05-14T08:23:54;8.97;;;8.17;;
1378;SDS011;683;48.738;9.226;2023-05-14T08:26:21;8.00;;;7.30;;
1378;SDS011;683;48.738;9.226;2023-05-14T08:28:49;9.40;;;8.60;;
1378;SDS011;683;48.738;9.226;2023-05-14T08:31:17;9.43;;;8.63;;
1378;SDS011;683;48.738;9.226;2023-05-14T08:33:45;9.60;;;8.80;;
1378;SDS011;683;48.738;9.226;2023-05-14T08:36:12;9.10;;;8.30;;
1378;SDS011;683;48.738;9.226;2023-05-14T08:38:39;10.87;;;9.87;;
1378;SDS011;683;48.738;9.226;2023-05-14T08:41:08;10.23;;;9.33;;
1378;SDS011;683;48.738;9.226;2023-05-14T08:43:42;9.63;;;8.73;;
1378;SDS011;683;48.738;9.226;2023-05-14T08:46:15;11.73;;;10.07;;
1378;SDS011;683;48.738;9.226;2023-05-14T08:48:49;12.70;;;11.50;;
1378;SDS011;683;48.738;9.226;2023-05-14T08:51:22;14.83;;;9.27;;
1378;SDS011;683;48.738;9.226;2023-05-14T08:53:50;10.90;;;9.90;;
1378;SDS011;683;48.738;9.226;2023-05-14T08:56:17;10.90;;;10.00;;
1378;SDS011;683;48.738;9.226;2023-05-14T08:58:46;8.90;;;8.10;;
1378;SDS011;683;48.738;9.226;2023-05-14T09:01:13;9.60;;;8.80;;
1378;SDS011;683;48.738;9.226;2023-05-14T09:03:42;10.70;;;9.83;;
1378;SDS011;683;48.738;9.226;2023-05-14T09:06:10;10.53;;;9.73;;
1378;SDS011;683;48.738;9.226;2023-05-14T09:08:39;11.80;;;10.70;;
1378;SDS011;683;48.738;9.226;2023-05-14T09:11:07;10.83;;;9.73;;
1378;SDS011;683;48.738;9.226;2023-05-14T09:13:35;10.73;;;9.83;;
1378;SDS011;683;48.738;9.226;2023-05-14T09:16:04;10.60;;;9.70;;
1378;SDS011;683;48.738;9.226;2023-05-14T09:18:32;13.43;;;11.90;;
1378;SDS011;683;48.738;9.226;2023-05-14T09:21:04;12.10;;;10.93;;
1378;SDS011;683;48.738;9.226;2023-05-14T09:23:33;11.10;;;10.10;;
1378;SDS011;683;48.738;9.226;2023-05-14T09:26:03;10.30;;;9.40;;
1378;SDS011;683;48.738;9.226;2023-05-14T09:28:31;10.77;;;9.83;;
1378;SDS011;683;48.738;9.226;2023-05-14T09:30:58;10.03;;;9.13;;
1378;SDS011;683;48.738;9.226;2023-05-14T09:33:25;9.10;;;8.30;;
1378;SDS011;683;48.738;9.226;2023-05-14T09:35:54;8.63;;;7.93;;
1378;SDS011;683;48.738;9.226;2023-05-14T09:38:28;7.40;;;6.80;;
1378;SDS011;683;48.738;9.226;2023-05-14T09:41:03;9.27;;;8.47;;
1378;SDS011;683;48.738;9.226;2023-05-14T09:43:31;7.97;;;7.27;;
1378;SDS011;683;48.738;9.226;2023-05-14T09:45:58;8.50;;;7.80;;
1378;SDS011;683;48.738;9.226;2023-05-14T09:48:25;7.37;;;6.80;;
1378;SDS011;683;48.738;9.226;2023-05-14T09:50:53;9.20;;;8.37;;
1378;SDS011;683;48.738;9.226;2023-05-14T09:53:20;9.03;;;8.27;;
1378;SDS011;683;48.738;9.226;2023-05-14T09:55:48;7.73;;;7.03;;
1378;SDS011;683;48.738;9.226;2023-05-14T09:58:17;9.90;;;9.10;;
1378;SDS011;683;48.738;9.226;2023-05-14T10:00:45;12.27;;;10.20;;
1378;SDS011;683;48.738;9.226;2023-05-14T10:03:13;11.43;;;10.33;;
1378;SDS011;683;48.738;9.226;2023-05-14T10:05:41;10.27;;;9.40;;
1378;SDS011;683;48.738;9.226;2023-05-14T10:08:11;8.70;;;7.80;;
1378;SDS011;683;48.738;9.226;2023-05-14T10:10:45;10.33;;;9.43;;
1378;SDS011;683;48.738;9.226;2023-05-14T10:13:28;9.60;;;8.80;;
1378;SDS011;683;48.738;9.226;2023-05-14T10:16:00;10.73;;;9.83;;
1378;SDS011;683;48.738;9.226;2023-05-14T10:18:39;12.23;;;11.00;;
1378;SDS011;683;48.738;9.226;2023-05-14T10:21:11;11.63;;;10.63;;
1378;SDS011;683;48.738;9.226;2023-05-14T10:23:44;13.13;;;11.93;;
1378;SDS011;683;48.738;9.226;2023-05-14T10:26:13;18.20;;;16.47;;
1378;SDS011;683;48.738;9.226;2023-05-14T10:28:42;13.20;;;12.10;;
1378;SDS011;683;48.738;9.226;2023-05-14T10:31:10;10.17;;;9.30;;
1378;SDS011;683;48.738;9.226;2023-05-14T10:33:45;9.83;;;8.93;;
1378;SDS011;683;48.738;9.226;2023-05-14T10:36:14;7.60;;;7.00;;
1378;SDS011;683;48.738;9.226;2023-05-14T10:38:43;7.50;;;6.90;;
1378;SDS011;683;48.738;9.226;2023-05-14T10:41:11;7.50;;;6.90;;
1378;SDS011;683;48.738;9.226;2023-05-14T10:43:43;9.53;;;7.83;;
1378;SDS011;683;48.738;9.226;2023-05-14T10:46:11;8.80;;;8.00;;
1378;SDS011;683;48.738;9.226;2023-05-14T10:48:40;7.43;;;6.83;;
1378;SDS011;683;48.738;9.226;2023-05-14T10:51:09;6.37;;;5.87;;
1378;SDS011;683;48.738;9.226;2023-05-14T10:53:37;7.20;;;6.70;;
1378;SDS011;683;48.738;9.226;2023-05-14T10:56:07;7.00;;;6.40;;
1378;SDS011;683;48.738;9.226;2023-05-14T10:58:36;7.03;;;6.33;;
1378;SDS011;683;48.738;9.226;2023-05-14T11:01:06;6.90;;;6.40;;
1378;SDS011;683;48.738;9.226;2023-05-14T11:03:37;5.50;;;5.10;;
1378;SDS011;683;48.738;9.226;2023-05-14T11:06:07;7.13;;;6.53;;
1378;SDS011;683;48.738;9.226;2023-05-14T11:08:35;6.83;;;6.23;;
1378;SDS011;683;48.738;9.226;2023-05-14T11:11:04;7.23;;;6.63;;
1378;SDS011;683;48.738;9.226;2023-05-14T11:13:31;8.30;;;6.83;;
1378;SDS011;683;48.738;9.226;2023-05-14T11:15:59;6.47;;;6.00;;
1378;SDS011;683;48.738;9.226;2023-05-14T11:18:29;7.40;;;6.70;;
1378;SDS011;683;48.738;9.226;2023-05-14T11:20:57;7.90;;;7.20;;
1378;SDS011;683;48.738;9.226;2023-05-14T11:23:26;6.90;;;6.40;;
1378;SDS011;683;48.738;9.226;2023-05-14T11:25:54;7.70;;;7.10;;
1378;SDS011;683;48.738;9.226;2023-05-14T11:28:22;6.67;;;6.17;;
1378;SDS011;683;48.738;9.226;2023-05-14T11:30:50;7.57;;;6.97;;
1378;SDS011;683;48.738;9.226;2023-05-14T11:33:19;7.63;;;7.00;;
1378;SDS011;683;48.738;9.226;2023-05-14T11:35:48;7.47;;;6.87;;
1378;SDS011;683;48.738;9.226;2023-05-14T11:38:16;8.57;;;7.87;;
1378;SDS011;683;48.738;9.226;2023-05-14T11:40:50;7.40;;;6.80;;
1378;SDS011;683;48.738;9.226;2023-05-14T11:43:18;8.90;;;8.10;;
1378;SDS011;683;48.738;9.226;2023-05-14T11:45:48;8.37;;;7.57;;
1378;SDS011;683;48.738;9.226;2023-05-14T11:48:16;9.03;;;8.17;;
1378;SDS011;683;48.738;9.226;2023-05-14T11:50:44;7.93;;;7.23;;
1378;SDS011;683;48.738;9.226;2023-05-14T11:53:16;8.60;;;7.90;;
1378;SDS011;683;48.738;9.226;2023-05-14T11:55:44;8.73;;;8.03;;
1378;SDS011;683;48.738;9.226;2023-05-14T11:58:12;8.50;;;7.80;;
1378;SDS011;683;48.738;9.226;2023-05-14T12:00:43;7.80;;;7.20;;
1378;SDS011;683;48.738;9.226;2023-05-14T12:03:10;6.63;;;6.10;;
1378;SDS011;683;48.738;9.226;2023-05-14T12:05:37;6.80;;;6.30;;
1378;SDS011;683;48.738;9.226;2023-05-14T12:08:19;10.77;;;6.73;;
1378;SDS011;683;48.738;9.226;2023-05-14T12:10:47;6.10;;;5.60;;
1378;SDS011;683;48.738;9.226;2023-05-14T12:13:17;7.40;;;6.80;;
1378;SDS011;683;48.738;9.226;2023-05-14T12:15:45;7.07;;;6.47;;
1378;SDS011;683;48.738;9.226;2023-05-14T12:18:12;7.20;;;6.50;;
1378;SDS011;683;48.738;9.226;2023-05-14T12:20:45;6.00;;;5.50;;
1378;SDS011;683;48.738;9.226;2023-05-14T12:23:13;5.30;;;4.90;;
1378;SDS011;683;48.738;9.226;2023-05-14T12:25:49;5.47;;;4.97;;
1378;SDS011;683;48.738;9.226;2023-05-14T12:28:17;6.10;;;5.60;;
1378;SDS011;683;48.738;9.226;2023-05-14T12:30:45;7.40;;;6.73;;
1378;SDS011;683;48.738;9.226;2023-05-14T12:33:12;6.53;;;5.90;;
1378;SDS011;683;48.738;9.226;2023-05-14T12:35:40;5.90;;;5.40;;
1378;SDS011;683;48.738;9.226;2023-05-14T12:38:08;5.50;;;5.10;;
1378;SDS011;683;48.738;9.226;2023-05-14T12:40:35;7.13;;;6.30;;
1378;SDS011;683;48.738;9.226;2023-05-14T12:43:04;6.53;;;6.03;;
1378;SDS011;683;48.738;9.226;2023-05-14T12:45:32;6.03;;;5.53;;
1378;SDS011;683;48.738;9.226;2023-05-14T12:47:59;6.40;;;5.90;;
1378;SDS011;683;48.738;9.226;2023-05-14T12:50:26;6.53;;;5.90;;
1378;SDS011;683;48.738;9.226;2023-05-14T12:52:55;5.77;;;5.37;;
1378;SDS011;683;48.738;9.226;2023-05-14T12:55:22;5.13;;;4.73;;
1378;SDS011;683;48.738;9.226;2023-05-14T12:57:49;5.73;;;5.30;;
1378;SDS011;683;48.738;9.226;2023-05-14T13:00:18;6.27;;;5.67;;
1378;SDS011;683;48.738;9.226;2023-05-14T13:02:46;5.27;;;4.87;;
1378;SDS011;683;48.738;9.226;2023-05-14T13:05:13;5.50;;;5.10;;
1378;SDS011;683;48.738;9.226;2023-05-14T13:07:40;4.73;;;4.33;;
1378;SDS011;683;48.738;9.226;2023-05-14T13:10:08;4.47;;;3.87;;
1378;SDS011;683;48.738;9.226;2023-05-14T13:12:36;3.40;;;3.20;;
1378;SDS011;683;48.738;9.226;2023-05-14T13:15:04;4.67;;;4.17;;
1378;SDS011;683;48.738;9.226;2023-05-14T13:17:33;4.60;;;4.30;;
1378;SDS011;683;48.738;9.226;2023-05-14T13:20:01;4.57;;;4.27;;
1378;SDS011;683;48.738;9.226;2023-05-14T13:22:30;4.43;;;4.13;;
1378;SDS011;683;48.738;9.226;2023-05-14T13:24:57;5.10;;;4.70;;
1378;SDS011;683;48.738;9.226;2023-05-14T13:27:25;5.00;;;4.60;;
1378;SDS011;683;48.738;9.226;2023-05-14T13:29:52;4.20;;;3.90;;
1378;SDS011;683;48.738;9.226;2023-05-14T13:32:20;4.77;;;4.37;;
1378;SDS011;683;48.738;9.226;2023-05-14T13:34:49;4.40;;;4.10;;
1378;SDS011;683;48.738;9.226;2023-05-14T13:37:16;5.17;;;4.77;;
1378;SDS011;683;48.738;9.226;2023-05-14T13:39:44;5.40;;;5.00;;
1378;SDS011;683;48.738;9.226;2023-05-14T13:42:11;4.30;;;4.00;;
1378;SDS011;683;48.738;9.226;2023-05-14T13:44:38;4.67;;;4.37;;
1378;SDS011;683;48.738;9.226;2023-05-14T13:47:06;4.30;;;4.00;;
1378;SDS011;683;48.738;9.226;2023-05-14T13:49:33;5.60;;;5.07;;
1378;SDS011;683;48.738;9.226;2023-05-14T13:52:02;4.63;;;4.23;;
1378;SDS011;683;48.738;9.226;2023-05-14T13:54:30;4.40;;;4.00;;
1378;SDS011;683;48.738;9.226;2023-05-14T13:56:57;5.07;;;4.67;;
1378;SDS011;683;48.738;9.226;2023-05-14T13:59:25;4.27;;;3.97;;
1378;SDS011;683;48.738;9.226;2023-05-14T14:01:52;4.53;;;4.23;;
1378;SDS011;683;48.738;9.226;2023-05-14T14:04:19;4.60;;;4.30;;
1378;SDS011;683;48.738;9.226;2023-05-14T14:06:48;4.50;;;4.10;;
1378;SDS011;683;48.738;9.226;2023-05-14T14:09:17;6.33;;;4.27;;
1378;SDS011;683;48.738;9.226;2023-05-14T14:11:44;5.63;;;3.90;;
1378;SDS011;683;48.738;9.226;2023-05-14T14:14:12;3.87;;;3.57;;
1378;SDS011;683;48.738;9.226;2023-05-14T14:16:39;4.00;;;3.70;;
1378;SDS011;683;48.738;9.226;2023-05-14T14:19:07;4.40;;;4.10;;
1378;SDS011;683;48.738;9.226;2023-05-14T14:21:34;3.50;;;3.30;;
1378;SDS011;683;48.738;9.226;2023-05-14T14:24:04;4.03;;;3.73;;
1378;SDS011;683;48.738;9.226;2023-05-14T14:26:33;4.60;;;4.30;;
1378;SDS011;683;48.738;9.226;2023-05-14T14:29:00;5.10;;;4.23;;
1378;SDS011;683;48.738;9.226;2023-05-14T14:31:28;3.87;;;3.67;;
1378;SDS011;683;48.738;9.226;2023-05-14T14:33:55;4.17;;;3.97;;
1378;SDS011;683;48.738;9.226;2023-05-14T14:36:23;3.77;;;3.57;;
1378;SDS011;683;48.738;9.226;2023-05-14T14:38:50;3.47;;;3.17;;
1378;SDS011;683;48.738;9.226;2023-05-14T14:41:18;4.10;;;3.80;;
1378;SDS011;683;48.738;9.226;2023-05-14T14:43:48;4.13;;;3.83;;
1378;SDS011;683;48.738;9.226;2023-05-14T14:46:15;3.83;;;3.63;;
1378;SDS011;683;48.738;9.226;2023-05-14T14:48:42;3.17;;;2.97;;
1378;SDS011;683;48.738;9.226;2023-05-14T14:51:10;3.70;;;3.43;;
1378;SDS011;683;48.738;9.226;2023-05-14T14:53:37;3.37;;;3.17;;
1378;SDS011;683;48.738;9.226;2023-05-14T14:56:05;3.20;;;3.00;;
1378;SDS011;683;48.738;9.226;2023-05-14T14:58:33;3.57;;;3.30;;
1378;SDS011;683;48.738;9.226;2023-05-14T15:01:02;3.47;;;3.10;;
1378;SDS011;683;48.738;9.226;2023-05-14T15:03:30;2.97;;;2.77;;
1378;SDS011;683;48.738;9.226;2023-05-14T15:05:57;3.50;;;3.30;;
1378;SDS011;683;48.738;9.226;2023-05-14T15:08:25;4.10;;;3.80;;
1378;SDS011;683;48.738;9.226;2023-05-14T15:10:53;3.23;;;3.03;;
1378;SDS011;683;48.738;9.226;2023-05-14T15:13:21;3.97;;;3.67;;
1378;SDS011;683;48.738;9.226;2023-05-14T15:15:49;4.20;;;3.53;;
1378;SDS011;683;48.738;9.226;2023-05-14T15:18:18;3.30;;;3.10;;
1378;SDS011;683;48.738;9.226;2023-05-14T15:20:46;4.20;;;3.80;;
1378;SDS011;683;48.738;9.226;2023-05-14T15:23:13;4.07;;;3.67;;